Time,TemperatureF,DewpointF,PressureIn,WindDirection,WindDirectionDegrees,WindSpeedMPH,WindSpeedGustMPH,Humidity,HourlyPrecipIn,Conditions,Clouds,dailyrainin,SoftwareType,DateUTC
2013-01-16 06:30:00,20.0,16.8,30.29,SSE,158,2.0,5.0,87,0.00,,---,0.00,VWS V14.01,2013-01-16 12:30:00,
2013-01-16 07:17:00,19.8,16.6,30.29,SSW,193,2.0,2.0,87,0.00,,---,0.00,VWS V14.01,2013-01-16 13:17:00,
2013-01-16 07:18:00,19.8,16.6,30.29,South,186,3.0,3.0,87,0.00,,---,0.00,VWS V14.01,2013-01-16 13:18:00,
2013-01-16 07:19:00,19.8,16.6,30.29,South,185,2.0,3.0,87,0.00,,---,0.00,VWS V14.01,2013-01-16 13:19:00,
2013-01-16 07:24:00,19.8,16.6,30.30,SSE,165,2.0,3.0,87,0.00,,---,0.00,VWS V14.01,2013-01-16 13:24:00,
2013-01-16 07:29:00,20.1,16.9,30.30,SSE,158,2.0,4.0,87,0.00,,---,0.00,VWS V14.01,2013-01-16 13:29:00,
2013-01-16 07:34:00,20.2,17.0,30.30,South,187,3.0,4.0,87,0.00,,---,0.00,VWS V14.01,2013-01-16 13:34:00,
2013-01-16 07:39:00,20.2,17.0,30.30,SSW,200,3.0,4.0,87,0.00,,---,0.00,VWS V14.01,2013-01-16 13:39:00,
2013-01-16 07:44:00,20.1,16.6,30.29,SSW,197,3.0,4.0,86,0.00,,---,0.00,VWS V14.01,2013-01-16 13:44:00,
2013-01-16 07:50:00,19.9,16.7,30.29,South,177,2.0,4.0,87,0.00,,---,0.00,VWS V14.01,2013-01-16 13:50:00,
2013-01-16 07:55:00,20.1,16.9,30.29,South,188,3.0,4.0,87,0.00,,---,0.00,VWS V14.01,2013-01-16 13:55:00,
2013-01-16 08:00:00,20.6,17.4,30.30,South,191,3.0,4.0,87,0.00,,---,0.00,VWS V14.01,2013-01-16 14:00:00,
2013-01-16 08:05:00,21.1,17.8,30.30,SSW,207,4.0,6.0,87,0.00,,---,0.00,VWS V14.01,2013-01-16 14:05:00,
2013-01-16 08:10:00,21.5,18.0,30.30,SW,216,2.0,6.0,86,0.00,,---,0.00,VWS V14.01,2013-01-16 14:10:00,
2013-01-16 08:15:00,21.6,17.8,30.30,WSW,239,3.0,6.0,85,0.00,,---,0.00,VWS V14.01,2013-01-16 14:15:00,
2013-01-16 08:20:00,21.7,17.9,30.30,WSW,238,0.0,6.0,85,0.00,,---,0.00,VWS V14.01,2013-01-16 14:20:00,
2013-01-16 08:25:00,21.9,18.1,30.30,SSW,212,1.0,6.0,85,0.00,,---,0.00,VWS V14.01,2013-01-16 14:25:00,
2013-01-16 08:30:00,22.3,18.8,30.31,West,263,3.0,6.0,86,0.00,,---,0.00,VWS V14.01,2013-01-16 14:30:00,
2013-01-16 08:35:00,22.9,19.1,30.31,WSW,238,4.0,6.0,85,0.00,,---,0.00,VWS V14.01,2013-01-16 14:35:00,
2013-01-16 08:41:00,23.5,19.4,30.31,WSW,250,4.0,8.0,84,0.00,,---,0.00,VWS V14.01,2013-01-16 14:41:00,
2013-01-16 08:46:00,23.9,19.8,30.31,WSW,249,4.0,8.0,84,0.00,,---,0.00,VWS V14.01,2013-01-16 14:46:00,
2013-01-16 08:51:00,24.4,20.3,30.31,West,262,4.0,8.0,84,0.00,,---,0.00,VWS V14.01,2013-01-16 14:51:00,
2013-01-16 08:56:00,25.1,20.7,30.31,West,259,4.0,8.0,83,0.00,,---,0.00,VWS V14.01,2013-01-16 14:56:00,
2013-01-16 09:01:00,25.7,21.3,30.31,WSW,248,4.0,6.0,83,0.00,,---,0.00,VWS V14.01,2013-01-16 15:01:00,
2013-01-16 09:06:00,26.5,22.0,30.31,WSW,257,8.0,9.0,83,0.00,,---,0.00,VWS V14.01,2013-01-16 15:06:00,
2013-01-16 09:11:00,27.5,22.7,30.31,West,267,4.0,9.0,82,0.00,,---,0.00,VWS V14.01,2013-01-16 15:11:00,
2013-01-16 09:16:00,28.2,23.4,30.31,WSW,246,7.0,9.0,82,0.00,,---,0.00,VWS V14.01,2013-01-16 15:16:00,
2013-01-16 09:22:00,29.0,23.9,30.32,SW,222,3.0,9.0,81,0.00,,---,0.00,VWS V14.01,2013-01-16 15:22:00,
2013-01-16 09:27:00,30.0,23.7,30.31,SSW,210,1.0,9.0,77,0.00,,---,0.00,VWS V14.01,2013-01-16 15:27:00,
2013-01-16 09:32:00,30.8,24.5,30.31,SW,221,2.0,7.0,77,0.00,,---,0.00,VWS V14.01,2013-01-16 15:32:00,
2013-01-16 09:37:00,31.5,24.8,30.31,WSW,244,6.0,7.0,76,0.00,,---,0.00,VWS V14.01,2013-01-16 15:37:00,
2013-01-16 09:42:00,31.8,24.1,30.32,WSW,251,4.0,10.0,73,0.00,,---,0.00,VWS V14.01,2013-01-16 15:42:00,
2013-01-16 09:47:00,32.4,25.0,30.32,SW,221,3.0,10.0,74,0.00,,---,0.00,VWS V14.01,2013-01-16 15:47:00,
2013-01-16 09:52:00,32.9,25.2,30.32,WSW,242,7.0,10.0,73,0.00,,---,0.00,VWS V14.01,2013-01-16 15:52:00,
2013-01-16 09:57:00,33.4,25.0,30.32,WSW,256,2.0,10.0,71,0.00,,---,0.00,VWS V14.01,2013-01-16 15:57:00,
2013-01-16 10:03:00,33.7,24.6,30.32,SW,225,3.0,7.0,69,0.00,,---,0.00,VWS V14.01,2013-01-16 16:03:00,
2013-01-16 10:08:00,34.2,24.8,30.32,West,269,5.0,9.0,68,0.00,,---,0.00,VWS V14.01,2013-01-16 16:08:00,
2013-01-16 10:13:00,34.5,24.3,30.31,SW,235,2.0,10.0,66,0.00,,---,0.00,VWS V14.01,2013-01-16 16:13:00,
2013-01-16 10:18:00,34.8,23.5,30.31,SW,229,4.0,10.0,63,0.00,,---,0.00,VWS V14.01,2013-01-16 16:18:00,
2013-01-16 10:23:00,35.3,23.2,30.31,West,266,9.0,11.0,61,0.00,,---,0.00,VWS V14.01,2013-01-16 16:23:00,
2013-01-16 10:28:00,35.6,23.1,30.30,WSW,242,8.0,11.0,60,0.00,,---,0.00,VWS V14.01,2013-01-16 16:28:00,
2013-01-16 10:33:00,36.0,23.1,30.30,West,270,6.0,10.0,59,0.00,,---,0.00,VWS V14.01,2013-01-16 16:33:00,
2013-01-16 10:38:00,36.4,23.0,30.30,SW,218,3.0,10.0,58,0.00,,---,0.00,VWS V14.01,2013-01-16 16:38:00,
2013-01-16 10:44:00,36.9,23.5,30.30,WSW,239,7.0,11.0,58,0.00,,---,0.00,VWS V14.01,2013-01-16 16:44:00,
2013-01-16 10:49:00,37.2,23.0,30.29,West,266,7.0,13.0,56,0.00,,---,0.00,VWS V14.01,2013-01-16 16:49:00,
2013-01-16 10:54:00,37.7,22.6,30.30,West,266,8.0,13.0,54,0.00,,---,0.00,VWS V14.01,2013-01-16 16:54:00,
2013-01-16 10:59:00,38.2,24.3,30.30,SW,236,7.0,13.0,57,0.00,,---,0.00,VWS V14.01,2013-01-16 16:59:00,
2013-01-16 11:04:00,38.8,24.5,30.29,West,270,4.0,8.0,56,0.00,,---,0.00,VWS V14.01,2013-01-16 17:04:00,
2013-01-16 11:09:00,39.1,23.4,30.29,WSW,238,5.0,10.0,53,0.00,,---,0.00,VWS V14.01,2013-01-16 17:09:00,
2013-01-16 11:14:00,39.4,23.7,30.29,West,269,7.0,10.0,53,0.00,,---,0.00,VWS V14.01,2013-01-16 17:14:00,
2013-01-16 11:19:00,39.8,22.2,30.28,West,281,7.0,11.0,49,0.00,,---,0.00,VWS V14.01,2013-01-16 17:19:00,
2013-01-16 11:24:00,40.4,23.2,30.28,West,265,6.0,11.0,50,0.00,,---,0.00,VWS V14.01,2013-01-16 17:24:00,
2013-01-16 11:30:00,41.1,21.9,30.28,WSW,252,10.0,11.0,46,0.00,,---,0.00,VWS V14.01,2013-01-16 17:30:00,
2013-01-16 11:35:00,41.5,23.3,30.28,SW,225,4.0,9.0,48,0.00,,---,0.00,VWS V14.01,2013-01-16 17:35:00,
2013-01-16 11:40:00,42.1,22.3,30.27,West,266,4.0,9.0,45,0.00,,---,0.00,VWS V14.01,2013-01-16 17:40:00,
2013-01-16 11:45:00,42.1,22.3,30.27,SW,226,5.0,12.0,45,0.00,,---,0.00,VWS V14.01,2013-01-16 17:45:00,
2013-01-16 11:50:00,42.2,21.9,30.27,WSW,249,5.0,12.0,44,0.00,,---,0.00,VWS V14.01,2013-01-16 17:50:00,
2013-01-16 11:55:00,42.7,21.8,30.27,West,274,7.0,12.0,43,0.00,,---,0.00,VWS V14.01,2013-01-16 17:55:00,
2013-01-16 12:00:00,42.8,20.8,30.26,WSW,253,10.0,12.0,41,0.00,,---,0.00,VWS V14.01,2013-01-16 18:00:00,
2013-01-16 12:05:00,43.3,20.6,30.26,WSW,252,5.0,12.0,40,0.00,,---,0.00,VWS V14.01,2013-01-16 18:05:00,
2013-01-16 12:10:00,43.5,20.8,30.26,West,276,5.0,12.0,40,0.00,,---,0.00,VWS V14.01,2013-01-16 18:10:00,
2013-01-16 12:16:00,43.9,21.2,30.25,West,260,4.0,12.0,40,0.00,,---,0.00,VWS V14.01,2013-01-16 18:16:00,
2013-01-16 12:21:00,44.2,20.2,30.25,West,274,5.0,12.0,38,0.00,,---,0.00,VWS V14.01,2013-01-16 18:21:00,
2013-01-16 12:26:00,44.5,20.5,30.25,SW,214,5.0,12.0,38,0.00,,---,0.00,VWS V14.01,2013-01-16 18:26:00,
2013-01-16 12:31:00,44.8,20.8,30.25,West,266,5.0,8.0,38,0.00,,---,0.00,VWS V14.01,2013-01-16 18:31:00,
2013-01-16 12:36:00,45.7,19.6,30.24,NW,314,6.0,11.0,35,0.00,,---,0.00,VWS V14.01,2013-01-16 18:36:00,
2013-01-16 12:41:00,46.1,18.6,30.24,WNW,283,6.0,12.0,33,0.00,,---,0.00,VWS V14.01,2013-01-16 18:41:00,
2013-01-16 12:46:00,46.3,16.6,30.24,West,268,9.0,15.0,30,0.00,,---,0.00,VWS V14.01,2013-01-16 18:46:00,
2013-01-16 12:51:00,46.1,15.6,30.24,West,271,6.0,15.0,29,0.00,,---,0.00,VWS V14.01,2013-01-16 18:51:00,
2013-01-16 12:57:00,46.0,17.1,30.24,WNW,290,9.0,15.0,31,0.00,,---,0.00,VWS V14.01,2013-01-16 18:57:00,
2013-01-16 13:02:00,45.9,18.4,30.23,West,281,8.0,13.0,33,0.00,,---,0.00,VWS V14.01,2013-01-16 19:02:00,
2013-01-16 13:07:00,46.1,19.3,30.23,WNW,284,6.0,13.0,34,0.00,,---,0.00,VWS V14.01,2013-01-16 19:07:00,
2013-01-16 13:12:00,46.4,19.6,30.23,WNW,285,9.0,17.0,34,0.00,,---,0.00,VWS V14.01,2013-01-16 19:12:00,
2013-01-16 13:17:00,46.9,19.3,30.23,WNW,285,12.0,17.0,33,0.00,,---,0.00,VWS V14.01,2013-01-16 19:17:00,
2013-01-16 13:22:00,46.9,20.0,30.23,WNW,295,11.0,17.0,34,0.00,,---,0.00,VWS V14.01,2013-01-16 19:22:00,
2013-01-16 13:27:00,47.3,21.0,30.23,WNW,290,6.0,17.0,35,0.00,,---,0.00,VWS V14.01,2013-01-16 19:27:00,
2013-01-16 13:32:00,48.0,22.3,30.22,WNW,290,11.0,13.0,36,0.00,,---,0.00,VWS V14.01,2013-01-16 19:32:00,
2013-01-16 13:37:00,47.9,19.5,30.22,NW,307,10.0,16.0,32,0.00,,---,0.00,VWS V14.01,2013-01-16 19:37:00,
2013-01-16 13:43:00,47.8,20.1,30.22,WNW,293,9.0,16.0,33,0.00,,---,0.00,VWS V14.01,2013-01-16 19:43:00,
2013-01-16 13:48:00,48.2,19.7,30.22,WNW,288,7.0,16.0,32,0.00,,---,0.00,VWS V14.01,2013-01-16 19:48:00,
2013-01-16 13:53:00,48.3,19.8,30.22,West,281,10.0,16.0,32,0.00,,---,0.00,VWS V14.01,2013-01-16 19:53:00,
2013-01-16 13:58:00,48.6,20.1,30.21,West,280,12.0,17.0,32,0.00,,---,0.00,VWS V14.01,2013-01-16 19:58:00,
2013-01-16 14:03:00,49.1,21.3,30.21,WNW,293,14.0,15.0,33,0.00,,---,0.00,VWS V14.01,2013-01-16 20:03:00,
2013-01-16 14:08:00,49.2,20.6,30.21,NW,314,12.0,16.0,32,0.00,,---,0.00,VWS V14.01,2013-01-16 20:08:00,
2013-01-16 14:13:00,49.0,21.2,30.21,WNW,285,14.0,16.0,33,0.00,,---,0.00,VWS V14.01,2013-01-16 20:13:00,
2013-01-16 14:18:00,49.2,21.3,30.21,NW,312,8.0,16.0,33,0.00,,---,0.00,VWS V14.01,2013-01-16 20:18:00,
2013-01-16 14:23:00,49.4,21.5,30.21,West,274,12.0,16.0,33,0.00,,---,0.00,VWS V14.01,2013-01-16 20:23:00,
2013-01-16 14:29:00,49.3,21.4,30.20,West,281,7.0,16.0,33,0.00,,---,0.00,VWS V14.01,2013-01-16 20:29:00,
2013-01-16 14:34:00,49.6,22.4,30.20,NW,304,7.0,15.0,34,0.00,,---,0.00,VWS V14.01,2013-01-16 20:34:00,
2013-01-16 14:39:00,49.9,23.4,30.20,WNW,295,11.0,15.0,35,0.00,,---,0.00,VWS V14.01,2013-01-16 20:39:00,
2013-01-16 14:44:00,50.2,23.6,30.20,NW,319,6.0,16.0,35,0.00,,---,0.00,VWS V14.01,2013-01-16 20:44:00,
2013-01-16 14:49:00,50.5,25.2,30.20,NW,306,5.0,16.0,37,0.00,,---,0.00,VWS V14.01,2013-01-16 20:49:00,
2013-01-16 14:54:00,50.3,25.0,30.20,WNW,289,10.0,16.0,37,0.00,,---,0.00,VWS V14.01,2013-01-16 20:54:00,
2013-01-16 14:59:00,50.1,26.1,30.20,WNW,284,10.0,16.0,39,0.00,,---,0.00,VWS V14.01,2013-01-16 20:59:00,
2013-01-16 15:04:00,50.5,27.1,30.20,WNW,297,6.0,13.0,40,0.00,,---,0.00,VWS V14.01,2013-01-16 21:04:00,
2013-01-16 15:09:00,50.5,28.3,30.20,WNW,290,10.0,13.0,42,0.00,,---,0.00,VWS V14.01,2013-01-16 21:09:00,
2013-01-16 15:14:00,50.6,29.0,30.20,WNW,293,10.0,15.0,43,0.00,,---,0.00,VWS V14.01,2013-01-16 21:14:00,
2013-01-16 15:20:00,50.9,28.6,30.20,NW,318,8.0,16.0,42,0.00,,---,0.00,VWS V14.01,2013-01-16 21:20:00,
2013-01-16 15:25:00,51.0,29.3,30.20,WNW,297,11.0,16.0,43,0.00,,---,0.00,VWS V14.01,2013-01-16 21:25:00,
2013-01-16 15:30:00,51.0,29.3,30.20,West,278,8.0,16.0,43,0.00,,---,0.00,VWS V14.01,2013-01-16 21:30:00,
2013-01-16 15:35:00,50.7,29.0,30.20,WNW,302,6.0,13.0,43,0.00,,---,0.00,VWS V14.01,2013-01-16 21:35:00,
2013-01-16 15:40:00,50.4,29.3,30.20,WNW,290,5.0,13.0,44,0.00,,---,0.00,VWS V14.01,2013-01-16 21:40:00,
2013-01-16 15:46:00,50.5,30.0,30.19,WNW,295,5.0,13.0,45,0.00,,---,0.00,VWS V14.01,2013-01-16 21:46:00,
2013-01-16 15:51:00,50.8,29.7,30.20,WNW,285,7.0,13.0,44,0.00,,---,0.00,VWS V14.01,2013-01-16 21:51:00,
2013-01-16 15:56:00,51.3,30.1,30.20,WNW,298,10.0,14.0,44,0.00,,---,0.00,VWS V14.01,2013-01-16 21:56:00,
2013-01-16 16:01:00,51.5,30.3,30.19,WNW,286,10.0,10.0,44,0.00,,---,0.00,VWS V14.01,2013-01-16 22:01:00,
2013-01-16 16:06:00,51.8,30.6,30.19,NW,315,7.0,16.0,44,0.00,,---,0.00,VWS V14.01,2013-01-16 22:06:00,
2013-01-16 16:11:00,51.7,30.5,30.19,NW,322,10.0,16.0,44,0.00,,---,0.00,VWS V14.01,2013-01-16 22:11:00,
2013-01-16 16:16:00,51.6,31.0,30.19,NW,307,4.0,16.0,45,0.00,,---,0.00,VWS V14.01,2013-01-16 22:16:00,
2013-01-16 16:21:00,52.0,30.8,30.20,NW,317,4.0,16.0,44,0.00,,---,0.00,VWS V14.01,2013-01-16 22:21:00,
2013-01-16 16:27:00,52.0,30.8,30.20,NW,324,6.0,16.0,44,0.00,,---,0.00,VWS V14.01,2013-01-16 22:27:00,
2013-01-16 16:32:00,52.0,30.8,30.20,NW,306,5.0,8.0,44,0.00,,---,0.00,VWS V14.01,2013-01-16 22:32:00,
2013-01-16 16:37:00,52.2,31.0,30.20,WNW,290,3.0,8.0,44,0.00,,---,0.00,VWS V14.01,2013-01-16 22:37:00,
2013-01-16 16:42:00,52.5,30.7,30.20,West,276,6.0,13.0,43,0.00,,---,0.00,VWS V14.01,2013-01-16 22:42:00,
2013-01-16 16:47:00,52.5,31.2,30.20,NNW,333,6.0,13.0,44,0.00,,---,0.00,VWS V14.01,2013-01-16 22:47:00,
2013-01-16 16:52:00,52.5,31.2,30.20,West,278,3.0,13.0,44,0.00,,---,0.00,VWS V14.01,2013-01-16 22:52:00,
2013-01-16 16:58:00,52.4,30.6,30.20,NNW,330,6.0,13.0,43,0.00,,---,0.00,VWS V14.01,2013-01-16 22:58:00,
2013-01-16 17:03:00,52.3,31.6,30.20,NW,323,4.0,7.0,45,0.00,,---,0.00,VWS V14.01,2013-01-16 23:03:00,
2013-01-16 17:08:00,52.2,31.5,30.21,NW,324,3.0,7.0,45,0.00,,---,0.00,VWS V14.01,2013-01-16 23:08:00,
2013-01-16 17:13:00,52.1,31.4,30.21,NW,314,4.0,7.0,45,0.00,,---,0.00,VWS V14.01,2013-01-16 23:13:00,
2013-01-16 17:18:00,52.0,31.3,30.21,NW,322,3.0,7.0,45,0.00,,---,0.00,VWS V14.01,2013-01-16 23:18:00,
2013-01-16 17:23:00,51.9,31.2,30.21,NW,316,3.0,8.0,45,0.00,,---,0.00,VWS V14.01,2013-01-16 23:23:00,
2013-01-16 17:29:00,51.6,31.5,30.22,NW,323,6.0,8.0,46,0.00,,---,0.00,VWS V14.01,2013-01-16 23:29:00,
2013-01-16 17:34:00,51.1,31.6,30.22,NW,315,4.0,6.0,47,0.00,,---,0.00,VWS V14.01,2013-01-16 23:34:00,
2013-01-16 17:39:00,50.6,31.6,30.22,NW,322,4.0,6.0,48,0.00,,---,0.00,VWS V14.01,2013-01-16 23:39:00,
2013-01-16 17:44:00,50.0,31.6,30.22,NW,319,5.0,6.0,49,0.00,,---,0.00,VWS V14.01,2013-01-16 23:44:00,
2013-01-16 17:49:00,49.3,31.5,30.23,NW,317,4.0,6.0,50,0.00,,---,0.00,VWS V14.01,2013-01-16 23:49:00,
2013-01-16 17:54:00,48.9,31.1,30.23,NW,323,4.0,6.0,50,0.00,,---,0.00,VWS V14.01,2013-01-16 23:54:00,
2013-01-16 17:59:00,48.3,31.5,30.23,NW,316,2.0,6.0,52,0.00,,---,0.00,VWS V14.01,2013-01-16 23:59:00,
2013-01-16 18:04:00,47.8,31.0,30.23,NW,319,3.0,3.0,52,0.00,,---,0.00,VWS V14.01,2013-01-17 00:04:00,
2013-01-16 18:10:00,47.7,31.0,30.23,NW,314,1.0,3.0,52,0.00,,---,0.00,VWS V14.01,2013-01-17 00:10:00,
2013-01-16 18:15:00,46.7,31.0,30.23,WNW,293,2.0,3.0,54,0.00,,---,0.00,VWS V14.01,2013-01-17 00:15:00,
2013-01-16 18:20:00,45.7,31.4,30.24,WNW,293,2.0,3.0,57,0.00,,---,0.00,VWS V14.01,2013-01-17 00:20:00,
2013-01-16 18:25:00,45.2,31.3,30.24,WNW,293,2.0,3.0,58,0.00,,---,0.00,VWS V14.01,2013-01-17 00:25:00,
2013-01-16 18:30:00,44.8,30.9,30.24,WNW,285,2.0,4.0,58,0.00,,---,0.00,VWS V14.01,2013-01-17 00:30:00,
2013-01-16 18:35:00,44.1,31.1,30.24,WNW,283,1.0,3.0,60,0.00,,---,0.00,VWS V14.01,2013-01-17 00:35:00,
2013-01-16 18:40:00,43.5,31.0,30.24,WNW,283,1.0,3.0,61,0.00,,---,0.00,VWS V14.01,2013-01-17 00:40:00,
2013-01-16 18:45:00,43.6,31.0,30.24,WNW,283,0.0,3.0,61,0.00,,---,0.00,VWS V14.01,2013-01-17 00:45:00,
2013-01-16 18:51:00,44.3,30.9,30.25,NNW,332,0.0,3.0,59,0.00,,---,0.00,VWS V14.01,2013-01-17 00:51:00,
2013-01-16 18:56:00,44.2,30.8,30.25,NNW,332,0.0,3.0,59,0.00,,---,0.00,VWS V14.01,2013-01-17 00:56:00,
2013-01-16 19:01:00,43.8,30.8,30.25,NNW,332,0.0,0.0,60,0.00,,---,0.00,VWS V14.01,2013-01-17 01:01:00,
2013-01-16 19:06:00,43.0,30.9,30.25,NNW,332,1.0,1.0,62,0.00,,---,0.00,VWS V14.01,2013-01-17 01:06:00,
2013-01-16 19:11:00,42.7,31.0,30.25,West,259,2.0,2.0,63,0.00,,---,0.00,VWS V14.01,2013-01-17 01:11:00,
2013-01-16 19:16:00,42.9,31.2,30.25,West,259,0.0,2.0,63,0.00,,---,0.00,VWS V14.01,2013-01-17 01:16:00,
2013-01-16 19:21:00,42.7,31.0,30.26,West,259,0.0,2.0,63,0.00,,---,0.00,VWS V14.01,2013-01-17 01:21:00,
2013-01-16 19:26:00,42.7,31.0,30.26,SSW,204,2.0,2.0,63,0.00,,---,0.00,VWS V14.01,2013-01-17 01:26:00,
2013-01-16 19:32:00,42.4,30.7,30.26,SSW,201,2.0,2.0,63,0.00,,---,0.00,VWS V14.01,2013-01-17 01:32:00,
2013-01-16 19:37:00,42.2,30.9,30.26,South,188,2.0,2.0,64,0.00,,---,0.00,VWS V14.01,2013-01-17 01:37:00,
2013-01-16 19:42:00,42.0,30.7,30.26,SSW,203,3.0,3.0,64,0.00,,---,0.00,VWS V14.01,2013-01-17 01:42:00,
2013-01-16 19:47:00,41.5,30.6,30.26,SW,217,3.0,4.0,65,0.00,,---,0.00,VWS V14.01,2013-01-17 01:47:00,
2013-01-16 19:52:00,40.2,29.4,30.26,SSE,168,3.0,4.0,65,0.00,,---,0.00,VWS V14.01,2013-01-17 01:52:00,
2013-01-16 19:57:00,39.1,29.5,30.27,South,190,3.0,4.0,68,0.00,,---,0.00,VWS V14.01,2013-01-17 01:57:00,
2013-01-16 20:02:00,40.0,30.7,30.27,South,191,2.0,3.0,69,0.00,,---,0.00,VWS V14.01,2013-01-17 02:02:00,
2013-01-16 20:07:00,40.7,30.6,30.27,SSW,194,2.0,3.0,67,0.00,,---,0.00,VWS V14.01,2013-01-17 02:07:00,
2013-01-16 20:13:00,41.3,31.2,30.27,SW,226,2.0,3.0,67,0.00,,---,0.00,VWS V14.01,2013-01-17 02:13:00,
2013-01-16 20:18:00,41.4,30.9,30.27,SW,218,1.0,3.0,66,0.00,,---,0.00,VWS V14.01,2013-01-17 02:18:00,
2013-01-16 20:23:00,41.3,30.8,30.27,SSW,211,2.0,3.0,66,0.00,,---,0.00,VWS V14.01,2013-01-17 02:23:00,
2013-01-16 20:28:00,41.2,30.7,30.27,SSW,211,2.0,3.0,66,0.00,,---,0.00,VWS V14.01,2013-01-17 02:28:00,
2013-01-16 20:33:00,41.1,30.6,30.27,SSW,204,2.0,3.0,66,0.00,,---,0.00,VWS V14.01,2013-01-17 02:33:00,
2013-01-16 20:38:00,40.6,30.1,30.27,South,191,3.0,3.0,66,0.00,,---,0.00,VWS V14.01,2013-01-17 02:38:00,
2013-01-16 20:43:00,39.8,30.1,30.27,South,191,2.0,3.0,68,0.00,,---,0.00,VWS V14.01,2013-01-17 02:43:00,
2013-01-16 20:48:00,39.7,30.0,30.27,SSW,198,3.0,3.0,68,0.00,,---,0.00,VWS V14.01,2013-01-17 02:48:00,
2013-01-16 20:54:00,39.0,29.4,30.28,SSW,194,4.0,4.0,68,0.00,,---,0.00,VWS V14.01,2013-01-17 02:54:00,
2013-01-16 20:59:00,37.5,29.0,30.28,South,188,3.0,5.0,71,0.00,,---,0.00,VWS V14.01,2013-01-17 02:59:00,
2013-01-16 21:04:00,37.2,29.4,30.28,South,191,3.0,4.0,73,0.00,,---,0.00,VWS V14.01,2013-01-17 03:04:00,
2013-01-16 21:09:00,36.2,28.4,30.28,SSE,163,2.0,4.0,73,0.00,,---,0.00,VWS V14.01,2013-01-17 03:09:00,
2013-01-16 21:14:00,36.0,29.5,30.28,SSW,197,3.0,4.0,77,0.00,,---,0.00,VWS V14.01,2013-01-17 03:14:00,
2013-01-16 21:19:00,36.7,29.5,30.28,SSW,200,2.0,4.0,75,0.00,,---,0.00,VWS V14.01,2013-01-17 03:19:00,
2013-01-16 21:24:00,36.4,29.2,30.28,SSW,204,2.0,4.0,75,0.00,,---,0.00,VWS V14.01,2013-01-17 03:24:00,
2013-01-16 21:29:00,36.9,29.7,30.29,SW,217,2.0,4.0,75,0.00,,---,0.00,VWS V14.01,2013-01-17 03:29:00,
2013-01-16 21:35:00,37.0,29.8,30.28,SSW,212,2.0,3.0,75,0.00,,---,0.00,VWS V14.01,2013-01-17 03:35:00,
2013-01-16 21:40:00,37.1,29.6,30.29,SW,225,2.0,3.0,74,0.00,,---,0.00,VWS V14.01,2013-01-17 03:40:00,
2013-01-16 21:45:00,36.5,29.3,30.28,SSW,206,2.0,3.0,75,0.00,,---,0.00,VWS V14.01,2013-01-17 03:45:00,
2013-01-16 21:50:00,36.4,29.6,30.29,SW,235,1.0,3.0,76,0.00,,---,0.00,VWS V14.01,2013-01-17 03:50:00,
2013-01-16 21:55:00,36.7,30.2,30.29,West,267,2.0,3.0,77,0.00,,---,0.00,VWS V14.01,2013-01-17 03:55:00,
2013-01-16 22:00:00,36.9,30.0,30.29,West,275,2.0,3.0,76,0.00,,---,0.00,VWS V14.01,2013-01-17 04:00:00,
2013-01-16 22:05:00,36.9,30.4,30.29,West,277,2.0,2.0,77,0.00,,---,0.00,VWS V14.01,2013-01-17 04:05:00,
2013-01-16 22:10:00,36.8,30.3,30.29,WNW,284,2.0,3.0,77,0.00,,---,0.00,VWS V14.01,2013-01-17 04:10:00,
2013-01-16 22:15:00,36.5,30.0,30.30,WNW,291,2.0,3.0,77,0.00,,---,0.00,VWS V14.01,2013-01-17 04:15:00,
2013-01-16 22:21:00,36.5,30.3,30.30,West,277,1.0,3.0,78,0.00,,---,0.00,VWS V14.01,2013-01-17 04:21:00,
2013-01-16 22:26:00,36.5,30.0,30.30,West,264,3.0,5.0,77,0.00,,---,0.00,VWS V14.01,2013-01-17 04:26:00,
2013-01-16 22:31:00,36.4,30.2,30.30,West,276,3.0,5.0,78,0.00,,---,0.00,VWS V14.01,2013-01-17 04:31:00,
2013-01-16 22:36:00,36.7,30.8,30.30,WNW,290,4.0,7.0,79,0.00,,---,0.00,VWS V14.01,2013-01-17 04:36:00,
2013-01-16 22:41:00,37.0,30.8,30.30,West,281,2.0,9.0,78,0.00,,---,0.00,VWS V14.01,2013-01-17 04:41:00,
2013-01-16 22:46:00,37.0,30.5,30.30,West,278,3.0,9.0,77,0.00,,---,0.00,VWS V14.01,2013-01-17 04:46:00,
2013-01-16 22:51:00,36.3,30.1,30.31,WNW,291,3.0,9.0,78,0.00,,---,0.00,VWS V14.01,2013-01-17 04:51:00,
2013-01-16 22:57:00,35.7,30.1,30.31,WNW,285,1.0,9.0,80,0.00,,---,0.00,VWS V14.01,2013-01-17 04:57:00,
2013-01-16 23:00:00,35.5,30.0,30.31,WNW,292,3.0,9.0,80,0.00,,---,0.00,VWS V14.01,2013-01-17 05:00:00,
2013-01-16 23:01:00,35.5,30.3,30.31,West,281,3.0,3.0,81,0.00,,---,0.00,VWS V14.01,2013-01-17 05:01:00,
2013-01-16 23:02:00,35.4,30.2,30.31,WNW,285,2.0,3.0,81,0.00,,---,0.00,VWS V14.01,2013-01-17 05:02:00,
2013-01-16 23:03:00,35.4,30.2,30.31,WNW,291,3.0,3.0,81,0.00,,---,0.00,VWS V14.01,2013-01-17 05:03:00,
2013-01-16 23:08:00,35.3,30.1,30.31,West,280,0.0,3.0,81,0.00,,---,0.00,VWS V14.01,2013-01-17 05:08:00,
2013-01-16 23:13:00,35.3,30.4,30.31,WNW,283,1.0,3.0,82,0.00,,---,0.00,VWS V14.01,2013-01-17 05:13:00,
2013-01-16 23:18:00,35.4,30.5,30.31,WNW,291,0.0,3.0,82,0.00,,---,0.00,VWS V14.01,2013-01-17 05:18:00,
2013-01-16 23:23:00,35.5,30.6,30.31,WNW,294,1.0,3.0,82,0.00,,---,0.00,VWS V14.01,2013-01-17 05:23:00,
2013-01-16 23:28:00,35.4,30.2,30.31,NW,314,2.0,3.0,81,0.00,,---,0.00,VWS V14.01,2013-01-17 05:28:00,
2013-01-16 23:34:00,35.2,30.3,30.31,NW,319,2.0,3.0,82,0.00,,---,0.00,VWS V14.01,2013-01-17 05:34:00,
2013-01-16 23:39:00,35.4,30.8,30.31,NW,311,2.0,4.0,83,0.00,,---,0.00,VWS V14.01,2013-01-17 05:39:00,
2013-01-16 23:44:00,36.0,31.0,30.31,NW,321,3.0,7.0,82,0.00,,---,0.00,VWS V14.01,2013-01-17 05:44:00,
2013-01-16 23:49:00,36.4,31.4,30.31,NW,304,5.0,7.0,82,0.00,,---,0.00,VWS V14.01,2013-01-17 05:49:00,
2013-01-16 23:54:00,36.6,31.0,30.32,NNW,330,5.0,8.0,80,0.00,,---,0.00,VWS V14.01,2013-01-17 05:54:00,
2013-01-16 23:59:00,36.6,31.0,30.32,WNW,302,3.0,8.0,80,0.00,,---,0.00,VWS V14.01,2013-01-17 05:59:00,